Costa Oeste — CUNK3 — position and weather

sailwx.info

Track history (hours):
 
Tides and Currents Weather Stations Pressure Air Temp Water Temp Dewpoint Dewpoint Depression Visibility Wind Speed Wind Dir Waves Ship Positions

Costa Oeste

Last reported at 2017-Oct-12 23:27 UTC. Time now 2017-Oct-17 10:00 UTC.
Position N 36°50' W 008°09'.

Type: Fishing. MMSI: 263416770.

Date/timePositionNaut miles runAvg speedWind from/ knotsBaromVisibWave heightAir tempDewpointWater temp
2017-Oct-12 23:27N 36°50' W 008°09'9 7.5
2017-Oct-12 22:12N 36°48' W 008°20'0 0.6
2017-Oct-12 21:54N 36°48' W 008°20'7 1.9
2017-Oct-12 18:25N 36°48' W 008°28'0 0.6
2017-Oct-12 17:59N 36°48' W 008°28'0 1.0
2017-Oct-12 17:30N 36°48' W 008°27'1 2.2
2017-Oct-12 16:54N 36°48' W 008°25'1 2.2
2017-Oct-12 16:31N 36°48' W 008°24'1 2.3
2017-Oct-12 16:00N 36°48' W 008°23'1 2.4
2017-Oct-12 15:30N 36°48' W 008°21'1 2.6
2017-Oct-12 15:00N 36°48' W 008°20'8 6.0
2017-Oct-12 13:42N 36°55' W 008°16'2 9.2
2017-Oct-12 13:30N 36°57' W 008°16'2 3.5
2017-Oct-12 13:00N 36°59' W 008°15'1 1.8
2017-Oct-12 12:29N 36°59' W 008°14'1 2.5
2017-Oct-12 12:00N 36°59' W 008°13'1 2.6
2017-Oct-12 11:30N 36°59' W 008°11'1 2.6
2017-Oct-12 10:59N 36°58' W 008°10'0 0.4
2017-Oct-12 10:18N 36°58' W 008°10'1 2.4
2017-Oct-12 09:47N 36°59' W 008°11'1 2.3
2017-Oct-12 09:27N 36°59' W 008°12'1 2.5
2017-Oct-12 08:53N 36°59' W 008°14'1 2.8
2017-Oct-12 08:24N 36°58' W 008°16'1 1.8
2017-Oct-12 08:00N 36°58' W 008°15'1 2.5
2017-Oct-12 07:30N 36°59' W 008°13'1 2.6
2017-Oct-12 07:00N 36°59' W 008°12'1 2.6
2017-Oct-12 06:28N 36°58' W 008°10'1 0.5
2017-Oct-12 05:21N 36°59' W 008°10'1 2.4
2017-Oct-12 05:00N 36°59' W 008°11'1 2.3
2017-Oct-12 04:27N 36°59' W 008°13'1 2.5
2017-Oct-12 03:57N 36°59' W 008°15'3 5.0
2017-Oct-12 03:21N 36°60' W 008°18'5 7.6
2017-Oct-12 02:44N 37°02' W 008°23'2 7.2
2017-Oct-12 02:30N 37°03' W 008°25'4 7.4
2017-Oct-12 02:00N 37°05' W 008°29'3 6.7
2017-Oct-12 01:29N 37°08' W 008°32'1 0.2
2017-Oct-11 22:26N 37°08' W 008°32'0 0.0
2017-Oct-11 21:56N 37°08' W 008°32'0 0.0
2017-Oct-11 21:30N 37°08' W 008°32'0 0.0
2017-Oct-11 20:58N 37°08' W 008°32'0 0.0
2017-Oct-11 20:27N 37°08' W 008°32'0 0.0
2017-Oct-11 19:59N 37°08' W 008°32'0 0.6
2017-Oct-11 19:22N 37°08' W 008°32'1 3.8
2017-Oct-11 18:59N 37°06' W 008°32'4 4.7
2017-Oct-11 18:14N 37°04' W 008°28'2 4.8
2017-Oct-11 17:55N 37°04' W 008°26'2 3.9
2017-Oct-11 17:28N 37°03' W 008°24'2 4.8
2017-Oct-11 17:00N 37°02' W 008°22'10 0.6
2017-Oct-10 23:34N 36°59' W 008°10'0 2.5
2017-Oct-10 23:28N 36°59' W 008°10'2 2.4
2017-Oct-10 22:47N 36°59' W 008°12'1 2.5
2017-Oct-10 22:30N 36°59' W 008°13'1 2.8
2017-Oct-10 22:00N 36°59' W 008°15'0 0.9
2017-Oct-10 21:29N 36°58' W 008°15'1 1.4
2017-Oct-10 21:00N 36°59' W 008°15'1 2.5
2017-Oct-10 20:30N 36°59' W 008°13'1 2.5
2017-Oct-10 20:00N 36°59' W 008°12'1 2.5
2017-Oct-10 19:26N 36°58' W 008°10'1 1.3
2017-Oct-10 18:33N 36°57' W 008°11'0 2.6
2017-Oct-10 18:29N 36°57' W 008°11'1 2.5
2017-Oct-10 18:00N 36°58' W 008°12'1 2.5
2017-Oct-10 17:30N 36°59' W 008°14'1 2.9
2017-Oct-10 17:00N 36°58' W 008°15'2 3.4
2017-Oct-10 16:30N 36°58' W 008°13'1 1.8
2017-Oct-10 15:59N 36°58' W 008°12'1 2.6
2017-Oct-10 15:30N 36°57' W 008°11'1 2.6
2017-Oct-10 14:59N 36°57' W 008°09'1 0.9
2017-Oct-10 13:41N 36°57' W 008°11'1 2.5
2017-Oct-10 13:26N 36°58' W 008°11'3 2.4
2017-Oct-10 12:17N 36°59' W 008°15'1 2.9
2017-Oct-10 12:00N 36°58' W 008°16'0 0.3
2017-Oct-10 11:31N 36°58' W 008°15'0 0.6
2017-Oct-10 11:00N 36°59' W 008°15'1 2.6
2017-Oct-10 10:29N 36°58' W 008°13'1 2.6
2017-Oct-10 09:59N 36°58' W 008°12'1 2.5
2017-Oct-10 09:30N 36°57' W 008°11'1 2.6
2017-Oct-10 09:00N 36°56' W 008°09'1 2.6
2017-Oct-10 08:30N 36°55' W 008°08'1 2.8
2017-Oct-10 08:00N 36°55' W 008°06'2 3.0
2017-Oct-10 07:30N 36°55' W 008°05'4 7.5
2017-Oct-10 06:58N 36°55' W 007°60'4 9.1
2017-Oct-10 06:30N 36°56' W 007°54'6 0.2
2017-Oct-09 02:51N 36°53' W 008°02'3 8.8
2017-Oct-09 02:30N 36°52' W 008°05'4 8.7
2017-Oct-09 02:00N 36°51' W 008°10'9 8.6
2017-Oct-09 00:55N 36°47' W 008°21'0 0.5
2017-Oct-09 00:24N 36°48' W 008°21'3 2.3
2017-Oct-08 23:03N 36°48' W 008°25'0 2.3
2017-Oct-08 23:00N 36°48' W 008°25'1 2.3
2017-Oct-08 22:29N 36°48' W 008°27'1 2.3
2017-Oct-08 22:00N 36°48' W 008°28'1 2.3
2017-Oct-08 21:30N 36°48' W 008°30'2 2.9
2017-Oct-08 20:58N 36°48' W 008°32'5 8.6
2017-Oct-08 20:26N 36°51' W 008°36'6 8.7
2017-Oct-08 19:47N 36°53' W 008°43'3 8.6
2017-Oct-08 19:23N 36°55' W 008°47'4 8.1
2017-Oct-08 18:55N 36°56' W 008°51'48 3.4
2017-Oct-08 04:57N 37°43' W 009°07'0 0.3
2017-Oct-08 04:30N 37°43' W 009°07'4 2.4
2017-Oct-08 02:59N 37°39' W 009°08'1 2.5
2017-Oct-08 02:30N 37°38' W 009°08'2 2.6
2017-Oct-08 01:41N 37°36' W 009°08'0 2.5
2017-Oct-08 01:30N 37°35' W 009°08'1 2.5
2017-Oct-08 01:00N 37°34' W 009°08'1 2.9
2017-Oct-08 00:30N 37°33' W 009°08'3 6.2
2017-Oct-08 00:00N 37°32' W 009°05'1 1.9
2017-Oct-07 23:30N 37°31' W 009°04'1 2.5
2017-Oct-07 22:59N 37°30' W 009°04'2 2.6
2017-Oct-07 22:18N 37°28' W 009°04'5 1.4
2017-Oct-07 18:39N 37°26' W 009°09'0 2.4
2017-Oct-07 18:29N 37°26' W 009°09'1 2.5
2017-Oct-07 18:00N 37°25' W 009°09'1 2.8
2017-Oct-07 17:29N 37°23' W 009°09'2 0.2
2017-Oct-07 08:11N 37°25' W 009°08'1 2.7
2017-Oct-07 07:57N 37°26' W 009°08'1 2.8
2017-Oct-07 07:30N 37°27' W 009°08'2 3.4
2017-Oct-07 06:59N 37°29' W 009°08'4 8.7
2017-Oct-07 06:30N 37°24' W 009°07'3 4.3
2017-Oct-07 05:48N 37°22' W 009°05'0 0.5
2017-Oct-07 05:30N 37°22' W 009°05'3 2.5
2017-Oct-07 04:20N 37°25' W 009°04'1 2.6
2017-Oct-07 03:59N 37°26' W 009°04'4 2.6
2017-Oct-07 02:22N 37°30' W 009°04'1 3.1
2017-Oct-07 01:58N 37°31' W 009°04'3 7.2
2017-Oct-07 01:30N 37°32' W 008°60'3 6.3
2017-Oct-07 01:00N 37°32' W 008°56'0 0.5
2017-Oct-07 00:30N 37°32' W 008°56'1 2.4
2017-Oct-07 00:00N 37°31' W 008°55'1 2.6
2017-Oct-06 23:30N 37°30' W 008°56'1 2.6
2017-Oct-06 23:00N 37°28' W 008°56'1 2.6
2017-Oct-06 22:30N 37°27' W 008°56'1 2.6
2017-Oct-06 22:00N 37°26' W 008°56'1 2.6
2017-Oct-06 21:30N 37°25' W 008°57'1 2.6
2017-Oct-06 21:00N 37°24' W 008°58'2 2.9
2017-Oct-06 20:26N 37°22' W 008°59'3 6.4
2017-Oct-06 19:55N 37°24' W 009°03'3 8.3
2017-Oct-06 19:30N 37°25' W 009°07'2 3.4
2017-Oct-06 19:00N 37°26' W 009°09'1 2.0
2017-Oct-06 18:30N 37°25' W 009°09'1 2.6
2017-Oct-06 18:00N 37°24' W 009°09'1 1.3
2017-Oct-06 17:30N 37°23' W 009°08'1 2.7
2017-Oct-06 17:00N 37°25' W 009°08'1 2.6
2017-Oct-06 16:30N 37°26' W 009°08'1 2.6
2017-Oct-06 16:00N 37°27' W 009°08'0 0.5
2017-Oct-06 15:30N 37°28' W 009°08'0 0.0
2017-Oct-06 15:00N 37°28' W 009°08'1 2.3
2017-Oct-06 14:30N 37°26' W 009°08'1 2.7
2017-Oct-06 13:59N 37°25' W 009°08'1 0.3
2017-Oct-06 12:10N 37°26' W 009°08'1 2.4
2017-Oct-06 11:54N 37°26' W 009°08'1 2.5
2017-Oct-06 11:30N 37°27' W 009°08'1 1.3
2017-Oct-06 11:00N 37°28' W 009°08'1 1.2
2017-Oct-06 10:30N 37°28' W 009°09'1 2.4
2017-Oct-06 10:00N 37°26' W 009°09'1 2.7
2017-Oct-06 09:30N 37°25' W 009°09'1 2.7
2017-Oct-06 09:00N 37°24' W 009°09'1 1.1
2017-Oct-06 08:30N 37°23' W 009°08'3 2.6
2017-Oct-06 07:20N 37°26' W 009°08'1 2.7
2017-Oct-06 06:58N 37°27' W 009°08'1 2.8
2017-Oct-06 06:30N 37°29' W 009°08'5 8.2
2017-Oct-06 05:55N 37°28' W 009°14'3 5.6
2017-Oct-06 05:25N 37°28' W 009°17'0 1.1
2017-Oct-06 04:59N 37°28' W 009°18'0 0.4
2017-Oct-06 04:29N 37°28' W 009°18'3 2.2
2017-Oct-06 03:01N 37°31' W 009°18'1 2.2
2017-Oct-06 02:47N 37°32' W 009°18'1 2.2
2017-Oct-06 02:28N 37°33' W 009°19'1 2.1
2017-Oct-06 01:59N 37°34' W 009°19'1 2.0
2017-Oct-06 01:19N 37°35' W 009°20'1 2.0
2017-Oct-06 00:58N 37°35' W 009°21'1 2.0
2017-Oct-06 00:29N 37°36' W 009°22'1 1.9
2017-Oct-05 23:53N 37°37' W 009°23'1 3.3
2017-Oct-05 23:28N 37°38' W 009°24'0 0.8
2017-Oct-05 23:00N 37°38' W 009°24'0 0.8
2017-Oct-05 22:30N 37°38' W 009°24'1 1.7
2017-Oct-05 22:00N 37°37' W 009°23'0 0.9
2017-Oct-05 21:28N 37°38' W 009°24'1 2.1
2017-Oct-05 21:00N 37°37' W 009°23'1 2.1
2017-Oct-05 20:30N 37°36' W 009°22'1 2.2
2017-Oct-05 20:00N 37°35' W 009°21'1 2.2
2017-Oct-05 19:30N 37°34' W 009°20'1 2.3
2017-Oct-05 19:00N 37°34' W 009°19'1 2.2
2017-Oct-05 18:25N 37°32' W 009°19'37 6.5
2017-Oct-05 12:39N 36°59' W 008°57'1 9.0
2017-Oct-05 12:30N 36°59' W 008°55'5 8.6
2017-Oct-05 11:54N 36°58' W 008°49'3 8.5
2017-Oct-05 11:30N 36°58' W 008°44'4 8.5
2017-Oct-05 11:00N 36°58' W 008°39'4 8.6
2017-Oct-05 10:30N 36°57' W 008°34'4 8.7
2017-Oct-05 10:00N 36°57' W 008°28'4 8.8
2017-Oct-05 09:30N 36°57' W 008°23'4 8.7
2017-Oct-05 09:00N 36°57' W 008°17'4 8.9
2017-Oct-05 08:30N 36°56' W 008°12'5 9.3
2017-Oct-05 08:00N 36°56' W 008°06'21 0.5
2017-Oct-03 10:21N 36°48' W 008°30'1 1.7
2017-Oct-03 09:46N 36°48' W 008°29'0 0.5
2017-Oct-03 09:30N 36°48' W 008°29'3 2.2
2017-Oct-03 08:10N 36°48' W 008°25'1 2.5
2017-Oct-03 07:48N 36°48' W 008°24'1 2.5
2017-Oct-03 07:19N 36°48' W 008°23'1 2.5
2017-Oct-03 07:00N 36°48' W 008°22'1 2.5
2017-Oct-03 06:27N 36°48' W 008°20'3 1.7
2017-Oct-03 04:46N 36°47' W 008°16'1 2.4
2017-Oct-03 04:20N 36°47' W 008°15'1 2.4
2017-Oct-03 03:50N 36°47' W 008°13'1 2.4
2017-Oct-03 03:30N 36°47' W 008°12'1 2.4
2017-Oct-03 03:00N 36°48' W 008°11'1 2.3
2017-Oct-03 02:30N 36°48' W 008°10'5 1.9
2017-Oct-02 23:39N 36°45' W 008°04'0 1.0
2017-Oct-02 23:30N 36°45' W 008°04'  
Track history (hours):
 
Tides and Currents Weather Stations Pressure Air Temp Water Temp Dewpoint Dewpoint Depression Visibility Wind Speed Wind Dir Waves Ship Positions

Costa Oeste

Last reported at 2017-Oct-12 23:27 UTC. Time now 2017-Oct-17 10:00 UTC.
Position N 36°50' W 008°09'.

Type: Fishing. MMSI: 263416770.

Date/timePositionNaut miles runAvg speedWind from/ knotsBaromVisibWave heightAir tempDewpointWater temp
2017-Oct-12 23:27N 36°50' W 008°09'9 7.5
2017-Oct-12 22:12N 36°48' W 008°20'0 0.6
2017-Oct-12 21:54N 36°48' W 008°20'7 1.9
2017-Oct-12 18:25N 36°48' W 008°28'0 0.6
2017-Oct-12 17:59N 36°48' W 008°28'0 1.0
2017-Oct-12 17:30N 36°48' W 008°27'1 2.2
2017-Oct-12 16:54N 36°48' W 008°25'1 2.2
2017-Oct-12 16:31N 36°48' W 008°24'1 2.3
2017-Oct-12 16:00N 36°48' W 008°23'1 2.4
2017-Oct-12 15:30N 36°48' W 008°21'1 2.6
2017-Oct-12 15:00N 36°48' W 008°20'8 6.0
2017-Oct-12 13:42N 36°55' W 008°16'2 9.2
2017-Oct-12 13:30N 36°57' W 008°16'2 3.5
2017-Oct-12 13:00N 36°59' W 008°15'1 1.8
2017-Oct-12 12:29N 36°59' W 008°14'1 2.5
2017-Oct-12 12:00N 36°59' W 008°13'1 2.6
2017-Oct-12 11:30N 36°59' W 008°11'1 2.6
2017-Oct-12 10:59N 36°58' W 008°10'0 0.4
2017-Oct-12 10:18N 36°58' W 008°10'1 2.4
2017-Oct-12 09:47N 36°59' W 008°11'1 2.3
2017-Oct-12 09:27N 36°59' W 008°12'1 2.5
2017-Oct-12 08:53N 36°59' W 008°14'1 2.8
2017-Oct-12 08:24N 36°58' W 008°16'1 1.8
2017-Oct-12 08:00N 36°58' W 008°15'1 2.5
2017-Oct-12 07:30N 36°59' W 008°13'1 2.6
2017-Oct-12 07:00N 36°59' W 008°12'1 2.6
2017-Oct-12 06:28N 36°58' W 008°10'1 0.5
2017-Oct-12 05:21N 36°59' W 008°10'1 2.4
2017-Oct-12 05:00N 36°59' W 008°11'1 2.3
2017-Oct-12 04:27N 36°59' W 008°13'1 2.5
2017-Oct-12 03:57N 36°59' W 008°15'3 5.0
2017-Oct-12 03:21N 36°60' W 008°18'5 7.6
2017-Oct-12 02:44N 37°02' W 008°23'2 7.2
2017-Oct-12 02:30N 37°03' W 008°25'4 7.4
2017-Oct-12 02:00N 37°05' W 008°29'3 6.7
2017-Oct-12 01:29N 37°08' W 008°32'1 0.2
2017-Oct-11 22:26N 37°08' W 008°32'0 0.0
2017-Oct-11 21:56N 37°08' W 008°32'0 0.0
2017-Oct-11 21:30N 37°08' W 008°32'0 0.0
2017-Oct-11 20:58N 37°08' W 008°32'0 0.0
2017-Oct-11 20:27N 37°08' W 008°32'0 0.0
2017-Oct-11 19:59N 37°08' W 008°32'0 0.6
2017-Oct-11 19:22N 37°08' W 008°32'1 3.8
2017-Oct-11 18:59N 37°06' W 008°32'4 4.7
2017-Oct-11 18:14N 37°04' W 008°28'2 4.8
2017-Oct-11 17:55N 37°04' W 008°26'2 3.9
2017-Oct-11 17:28N 37°03' W 008°24'2 4.8
2017-Oct-11 17:00N 37°02' W 008°22'10 0.6
2017-Oct-10 23:34N 36°59' W 008°10'0 2.5
2017-Oct-10 23:28N 36°59' W 008°10'2 2.4
2017-Oct-10 22:47N 36°59' W 008°12'1 2.5
2017-Oct-10 22:30N 36°59' W 008°13'1 2.8
2017-Oct-10 22:00N 36°59' W 008°15'0 0.9
2017-Oct-10 21:29N 36°58' W 008°15'1 1.4
2017-Oct-10 21:00N 36°59' W 008°15'1 2.5
2017-Oct-10 20:30N 36°59' W 008°13'1 2.5
2017-Oct-10 20:00N 36°59' W 008°12'1 2.5
2017-Oct-10 19:26N 36°58' W 008°10'1 1.3
2017-Oct-10 18:33N 36°57' W 008°11'0 2.6
2017-Oct-10 18:29N 36°57' W 008°11'1 2.5
2017-Oct-10 18:00N 36°58' W 008°12'1 2.5
2017-Oct-10 17:30N 36°59' W 008°14'1 2.9
2017-Oct-10 17:00N 36°58' W 008°15'2 3.4
2017-Oct-10 16:30N 36°58' W 008°13'1 1.8
2017-Oct-10 15:59N 36°58' W 008°12'1 2.6
2017-Oct-10 15:30N 36°57' W 008°11'1 2.6
2017-Oct-10 14:59N 36°57' W 008°09'1 0.9
2017-Oct-10 13:41N 36°57' W 008°11'1 2.5
2017-Oct-10 13:26N 36°58' W 008°11'3 2.4
2017-Oct-10 12:17N 36°59' W 008°15'1 2.9
2017-Oct-10 12:00N 36°58' W 008°16'0 0.3
2017-Oct-10 11:31N 36°58' W 008°15'0 0.6
2017-Oct-10 11:00N 36°59' W 008°15'1 2.6
2017-Oct-10 10:29N 36°58' W 008°13'1 2.6
2017-Oct-10 09:59N 36°58' W 008°12'1 2.5
2017-Oct-10 09:30N 36°57' W 008°11'1 2.6
2017-Oct-10 09:00N 36°56' W 008°09'1 2.6
2017-Oct-10 08:30N 36°55' W 008°08'1 2.8
2017-Oct-10 08:00N 36°55' W 008°06'2 3.0
2017-Oct-10 07:30N 36°55' W 008°05'4 7.5
2017-Oct-10 06:58N 36°55' W 007°60'4 9.1
2017-Oct-10 06:30N 36°56' W 007°54'6 0.2
2017-Oct-09 02:51N 36°53' W 008°02'3 8.8
2017-Oct-09 02:30N 36°52' W 008°05'4 8.7
2017-Oct-09 02:00N 36°51' W 008°10'9 8.6
2017-Oct-09 00:55N 36°47' W 008°21'0 0.5
2017-Oct-09 00:24N 36°48' W 008°21'3 2.3
2017-Oct-08 23:03N 36°48' W 008°25'0 2.3
2017-Oct-08 23:00N 36°48' W 008°25'1 2.3
2017-Oct-08 22:29N 36°48' W 008°27'1 2.3
2017-Oct-08 22:00N 36°48' W 008°28'1 2.3
2017-Oct-08 21:30N 36°48' W 008°30'2 2.9
2017-Oct-08 20:58N 36°48' W 008°32'5 8.6
2017-Oct-08 20:26N 36°51' W 008°36'6 8.7
2017-Oct-08 19:47N 36°53' W 008°43'3 8.6
2017-Oct-08 19:23N 36°55' W 008°47'4 8.1
2017-Oct-08 18:55N 36°56' W 008°51'48 3.4
2017-Oct-08 04:57N 37°43' W 009°07'0 0.3
2017-Oct-08 04:30N 37°43' W 009°07'4 2.4
2017-Oct-08 02:59N 37°39' W 009°08'1 2.5
2017-Oct-08 02:30N 37°38' W 009°08'2 2.6
2017-Oct-08 01:41N 37°36' W 009°08'0 2.5
2017-Oct-08 01:30N 37°35' W 009°08'1 2.5
2017-Oct-08 01:00N 37°34' W 009°08'1 2.9
2017-Oct-08 00:30N 37°33' W 009°08'3 6.2
2017-Oct-08 00:00N 37°32' W 009°05'1 1.9
2017-Oct-07 23:30N 37°31' W 009°04'1 2.5
2017-Oct-07 22:59N 37°30' W 009°04'2 2.6
2017-Oct-07 22:18N 37°28' W 009°04'5 1.4
2017-Oct-07 18:39N 37°26' W 009°09'0 2.4
2017-Oct-07 18:29N 37°26' W 009°09'1 2.5
2017-Oct-07 18:00N 37°25' W 009°09'1 2.8
2017-Oct-07 17:29N 37°23' W 009°09'2 0.2
2017-Oct-07 08:11N 37°25' W 009°08'1 2.7
2017-Oct-07 07:57N 37°26' W 009°08'1 2.8
2017-Oct-07 07:30N 37°27' W 009°08'2 3.4
2017-Oct-07 06:59N 37°29' W 009°08'4 8.7
2017-Oct-07 06:30N 37°24' W 009°07'3 4.3
2017-Oct-07 05:48N 37°22' W 009°05'0 0.5
2017-Oct-07 05:30N 37°22' W 009°05'3 2.5
2017-Oct-07 04:20N 37°25' W 009°04'1 2.6
2017-Oct-07 03:59N 37°26' W 009°04'4 2.6
2017-Oct-07 02:22N 37°30' W 009°04'1 3.1
2017-Oct-07 01:58N 37°31' W 009°04'3 7.2
2017-Oct-07 01:30N 37°32' W 008°60'3 6.3
2017-Oct-07 01:00N 37°32' W 008°56'0 0.5
2017-Oct-07 00:30N 37°32' W 008°56'1 2.4
2017-Oct-07 00:00N 37°31' W 008°55'1 2.6
2017-Oct-06 23:30N 37°30' W 008°56'1 2.6
2017-Oct-06 23:00N 37°28' W 008°56'1 2.6
2017-Oct-06 22:30N 37°27' W 008°56'1 2.6
2017-Oct-06 22:00N 37°26' W 008°56'1 2.6
2017-Oct-06 21:30N 37°25' W 008°57'1 2.6
2017-Oct-06 21:00N 37°24' W 008°58'2 2.9
2017-Oct-06 20:26N 37°22' W 008°59'3 6.4
2017-Oct-06 19:55N 37°24' W 009°03'3 8.3
2017-Oct-06 19:30N 37°25' W 009°07'2 3.4
2017-Oct-06 19:00N 37°26' W 009°09'1 2.0
2017-Oct-06 18:30N 37°25' W 009°09'1 2.6
2017-Oct-06 18:00N 37°24' W 009°09'1 1.3
2017-Oct-06 17:30N 37°23' W 009°08'1 2.7
2017-Oct-06 17:00N 37°25' W 009°08'1 2.6
2017-Oct-06 16:30N 37°26' W 009°08'1 2.6
2017-Oct-06 16:00N 37°27' W 009°08'0 0.5
2017-Oct-06 15:30N 37°28' W 009°08'0 0.0
2017-Oct-06 15:00N 37°28' W 009°08'1 2.3
2017-Oct-06 14:30N 37°26' W 009°08'1 2.7
2017-Oct-06 13:59N 37°25' W 009°08'1 0.3
2017-Oct-06 12:10N 37°26' W 009°08'1 2.4
2017-Oct-06 11:54N 37°26' W 009°08'1 2.5
2017-Oct-06 11:30N 37°27' W 009°08'1 1.3
2017-Oct-06 11:00N 37°28' W 009°08'1 1.2
2017-Oct-06 10:30N 37°28' W 009°09'1 2.4
2017-Oct-06 10:00N 37°26' W 009°09'1 2.7
2017-Oct-06 09:30N 37°25' W 009°09'1 2.7
2017-Oct-06 09:00N 37°24' W 009°09'1 1.1
2017-Oct-06 08:30N 37°23' W 009°08'3 2.6
2017-Oct-06 07:20N 37°26' W 009°08'1 2.7
2017-Oct-06 06:58N 37°27' W 009°08'1 2.8
2017-Oct-06 06:30N 37°29' W 009°08'5 8.2
2017-Oct-06 05:55N 37°28' W 009°14'3 5.6
2017-Oct-06 05:25N 37°28' W 009°17'0 1.1
2017-Oct-06 04:59N 37°28' W 009°18'0 0.4
2017-Oct-06 04:29N 37°28' W 009°18'3 2.2
2017-Oct-06 03:01N 37°31' W 009°18'1 2.2
2017-Oct-06 02:47N 37°32' W 009°18'1 2.2
2017-Oct-06 02:28N 37°33' W 009°19'1 2.1
2017-Oct-06 01:59N 37°34' W 009°19'1 2.0
2017-Oct-06 01:19N 37°35' W 009°20'1 2.0
2017-Oct-06 00:58N 37°35' W 009°21'1 2.0
2017-Oct-06 00:29N 37°36' W 009°22'1 1.9
2017-Oct-05 23:53N 37°37' W 009°23'1 3.3
2017-Oct-05 23:28N 37°38' W 009°24'0 0.8
2017-Oct-05 23:00N 37°38' W 009°24'0 0.8
2017-Oct-05 22:30N 37°38' W 009°24'1 1.7
2017-Oct-05 22:00N 37°37' W 009°23'0 0.9
2017-Oct-05 21:28N 37°38' W 009°24'1 2.1
2017-Oct-05 21:00N 37°37' W 009°23'1 2.1
2017-Oct-05 20:30N 37°36' W 009°22'1 2.2
2017-Oct-05 20:00N 37°35' W 009°21'1 2.2
2017-Oct-05 19:30N 37°34' W 009°20'1 2.3
2017-Oct-05 19:00N 37°34' W 009°19'1 2.2
2017-Oct-05 18:25N 37°32' W 009°19'37 6.5
2017-Oct-05 12:39N 36°59' W 008°57'1 9.0
2017-Oct-05 12:30N 36°59' W 008°55'5 8.6
2017-Oct-05 11:54N 36°58' W 008°49'3 8.5
2017-Oct-05 11:30N 36°58' W 008°44'4 8.5
2017-Oct-05 11:00N 36°58' W 008°39'4 8.6
2017-Oct-05 10:30N 36°57' W 008°34'4 8.7
2017-Oct-05 10:00N 36°57' W 008°28'4 8.8
2017-Oct-05 09:30N 36°57' W 008°23'4 8.7
2017-Oct-05 09:00N 36°57' W 008°17'4 8.9
2017-Oct-05 08:30N 36°56' W 008°12'5 9.3
2017-Oct-05 08:00N 36°56' W 008°06'21 0.5
2017-Oct-03 10:21N 36°48' W 008°30'1 1.7
2017-Oct-03 09:46N 36°48' W 008°29'0 0.5
2017-Oct-03 09:30N 36°48' W 008°29'3 2.2
2017-Oct-03 08:10N 36°48' W 008°25'1 2.5
2017-Oct-03 07:48N 36°48' W 008°24'1 2.5
2017-Oct-03 07:19N 36°48' W 008°23'1 2.5
2017-Oct-03 07:00N 36°48' W 008°22'1 2.5
2017-Oct-03 06:27N 36°48' W 008°20'3 1.7
2017-Oct-03 04:46N 36°47' W 008°16'1 2.4
2017-Oct-03 04:20N 36°47' W 008°15'1 2.4
2017-Oct-03 03:50N 36°47' W 008°13'1 2.4
2017-Oct-03 03:30N 36°47' W 008°12'1 2.4
2017-Oct-03 03:00N 36°48' W 008°11'1 2.3
2017-Oct-03 02:30N 36°48' W 008°10'5 1.9
2017-Oct-02 23:39N 36°45' W 008°04'0 1.0
2017-Oct-02 23:30N 36°45' W 008°04'  

Dump ship's entire track history